Angical do Piaui, Brazil
Current Conditions -  °F | °C
As of 5:00 AM on Friday 26 Dec 2014 (Local Time) from SBTE Reporting Station
Clear Clear  
Wind Chill: 77°   Ceiling: Unl
Heat Index: 79°   Visibility: 6mi
Dew Point: 70°   Wind: 3mph
Humidity: 78%   Direction: 320°NW
Pressure: 29.85"   Gusts: NA
Location:  6.09°S, 42.74°W
Report Text: SBTE 260800Z 32003KT CAVOK 25/21 Q1011
Loading
Personal Weather Stations






























Interactive Weather Map New forecast layout! Learn more

10-Day Weather Forecast

Advertisements
Track Severe Weather on mobile